createdAt,value
2014-09-22T00:00:31.542Z,69.16
2014-09-22T00:01:36.215Z,70.18
2014-09-22T00:02:40.904Z,70.35
2014-09-22T00:03:45.579Z,69.96
2014-09-22T00:04:50.269Z,69.75
2014-09-22T00:05:54.943Z,69.72
2014-09-22T00:06:59.632Z,69.52
2014-09-22T00:08:04.306Z,70.59
2014-09-22T00:09:09.292Z,70.29
2014-09-22T00:10:14.263Z,69.77
2014-09-22T00:11:18.953Z,70.84
2014-09-22T00:12:23.922Z,70.02
2014-09-22T00:13:28.612Z,69.63
2014-09-22T00:14:33.286Z,69.87
2014-09-22T00:15:38.271Z,69.15
2014-09-22T00:16:43.243Z,69.31
2014-09-22T00:17:47.934Z,69.33
2014-09-22T00:18:52.905Z,69.93
2014-09-22T00:19:57.594Z,69.74
2014-09-22T00:21:02.268Z,70.55
2014-09-22T00:22:07.254Z,70.49
2014-09-22T00:23:11.928Z,71.14
2014-09-22T00:24:16.617Z,70.89
2014-09-22T00:25:21.291Z,71.74
2014-09-22T00:26:25.981Z,71.72
2014-09-22T00:27:30.951Z,71.52
2014-09-22T00:28:35.938Z,71.69
2014-09-22T00:29:40.612Z,72.11
2014-09-22T00:30:45.301Z,70.86
2014-09-22T00:31:49.977Z,70.78
2014-09-22T00:32:54.651Z,70.61
2014-09-22T00:33:59.339Z,69.67
2014-09-22T00:35:04.013Z,69.45
2014-09-22T00:36:08.703Z,70.24
2014-09-22T00:37:13.377Z,70.33
2014-09-22T00:38:18.066Z,69.89
2014-09-22T00:39:22.741Z,70.06
2014-09-22T00:40:27.727Z,69.97
2014-09-22T00:41:32.401Z,70.2
2014-09-22T00:42:37.075Z,70.54
2014-09-22T00:43:42.062Z,70.62
2014-09-22T00:44:46.736Z,69.56
2014-09-22T00:45:51.410Z,69.56
2014-09-22T00:46:56.397Z,69
2014-09-22T00:48:01.366Z,69.58
2014-09-22T00:49:06.057Z,70.03
2014-09-22T00:50:10.745Z,70.45
2014-09-22T00:51:15.420Z,70.56
2014-09-22T00:52:20.406Z,70.89
2014-09-22T00:53:25.377Z,70.24
2014-09-22T00:54:30.067Z,69.45
2014-09-22T00:55:34.741Z,69.64
2014-09-22T00:56:39.430Z,69.76
2014-09-22T00:57:44.401Z,69.59
2014-09-22T00:58:49.092Z,70.37
2014-09-22T00:59:53.765Z,71.01
2014-09-22T01:00:58.751Z,70.73
2014-09-22T01:02:03.425Z,70.3
2014-09-22T01:03:08.114Z,70.64
2014-09-22T01:04:12.788Z,70.05
2014-09-22T01:05:17.774Z,70.64
2014-09-22T01:06:22.448Z,70.18
2014-09-22T01:07:27.122Z,69.67
2014-09-22T01:08:31.813Z,69.69
2014-09-22T01:09:36.488Z,69.69
2014-09-22T01:10:41.176Z,69.73
2014-09-22T01:11:46.163Z,69.86
2014-09-22T01:12:50.853Z,70.5
2014-09-22T01:13:55.526Z,71
2014-09-22T01:15:00.809Z,70.28
2014-09-22T01:16:05.483Z,71.6
2014-09-22T01:17:10.469Z,70.81
2014-09-22T01:18:15.144Z,70.89
2014-09-22T01:19:19.834Z,70.21
2014-09-22T01:20:24.508Z,70.74
2014-09-22T01:21:29.494Z,71.02
2014-09-22T01:22:34.465Z,71.61
2014-09-22T01:23:39.155Z,71.59
2014-09-22T01:24:43.828Z,70.35
2014-09-22T01:25:48.518Z,70.28
2014-09-22T01:26:53.191Z,70.41
2014-09-22T01:27:57.881Z,70.61
2014-09-22T01:29:02.570Z,71.33
2014-09-22T01:30:07.542Z,70.72
2014-09-22T01:31:12.232Z,70.99
2014-09-22T01:32:16.906Z,70.9
2014-09-22T01:33:21.595Z,70.51
2014-09-22T01:34:26.581Z,70.02
2014-09-22T01:35:31.552Z,69.97
2014-09-22T01:36:36.241Z,69.81
2014-09-22T01:37:41.228Z,70.34
2014-09-22T01:38:45.902Z,70.47
2014-09-22T01:39:50.591Z,70.73
2014-09-22T01:40:55.265Z,70.28
2014-09-22T01:41:59.955Z,69.67
2014-09-22T01:43:04.644Z,69.2
2014-09-22T01:44:09.318Z,69.98
2014-09-22T01:45:14.601Z,69.99
2014-09-22T01:46:19.291Z,70.84
2014-09-22T01:47:24.262Z,70.42
2014-09-22T01:48:29.248Z,70.9
2014-09-22T01:49:34.219Z,70.65
2014-09-22T01:50:38.908Z,71.1
2014-09-22T01:51:43.597Z,70.32
2014-09-22T01:52:48.568Z,70.18
2014-09-22T01:53:53.556Z,70.95
2014-09-22T01:54:58.245Z,71.3
2014-09-22T01:56:02.919Z,71.36
2014-09-22T01:57:07.609Z,71.49
2014-09-22T01:58:12.283Z,71.28
2014-09-22T01:59:17.269Z,70.81
2014-09-22T02:00:21.943Z,70.73
2014-09-22T02:01:26.631Z,70.7
2014-09-22T02:02:31.306Z,70.6
2014-09-22T02:03:35.980Z,70.33
2014-09-22T02:04:40.670Z,70.65
2014-09-22T02:05:45.344Z,70.46
2014-09-22T02:06:50.329Z,70.37
2014-09-22T02:07:55.057Z,70.65
2014-09-22T02:08:59.783Z,70.31
2014-09-22T02:10:04.494Z,70.28
2014-09-22T02:11:09.518Z,70.16
2014-09-22T02:12:14.219Z,70
2014-09-22T02:13:18.220Z,69.62
2014-09-22T02:14:22.922Z,69.7
2014-09-22T02:15:27.610Z,70.3
2014-09-22T02:16:32.313Z,69.87
2014-09-22T02:17:37.000Z,70.96
2014-09-22T02:18:41.696Z,70.75
2014-09-22T02:19:46.375Z,71.01
2014-09-22T02:20:51.367Z,72.11
2014-09-22T02:21:56.045Z,70.9
2014-09-22T02:23:00.737Z,70.08
2014-09-22T02:24:05.413Z,70.73
2014-09-22T02:25:10.104Z,70.37
2014-09-22T02:26:15.077Z,70.57
2014-09-22T02:27:20.080Z,70.28
2014-09-22T02:28:24.754Z,69.62
2014-09-22T02:29:29.443Z,70.35
2014-09-22T02:30:34.133Z,70.55
2014-09-22T02:31:38.808Z,70.33
2014-09-22T02:32:43.482Z,70.4
2014-09-22T02:33:48.173Z,69.89
2014-09-22T02:34:52.848Z,70.81
2014-09-22T02:35:57.835Z,69.94
2014-09-22T02:37:02.509Z,70.78
2014-09-22T02:38:07.199Z,71.15
2014-09-22T02:39:11.872Z,70.97
2014-09-22T02:40:16.859Z,70.57
2014-09-22T02:41:21.830Z,69.83
2014-09-22T02:42:26.816Z,69.84
2014-09-22T02:43:31.490Z,69.61
2014-09-22T02:44:36.164Z,69.73
2014-09-22T02:45:40.869Z,69.86
2014-09-22T02:46:45.543Z,70.52
2014-09-22T02:47:50.233Z,69.91
2014-09-22T02:48:55.203Z,69.89
2014-09-22T02:50:00.190Z,70.02
2014-09-22T02:51:04.864Z,69.4
2014-09-22T02:52:09.554Z,69.6
2014-09-22T02:53:14.242Z,71.14
2014-09-22T02:54:18.916Z,69.6
2014-09-22T02:55:23.590Z,69.86
2014-09-22T02:56:28.279Z,70.06
2014-09-22T02:57:32.969Z,69.66
2014-09-22T02:58:37.644Z,69.23
2014-09-22T02:59:42.318Z,69.05
2014-09-22T03:00:47.008Z,69.68
2014-09-22T03:01:51.681Z,69.34
2014-09-22T03:02:56.355Z,69.54
2014-09-22T03:04:01.045Z,68.99
2014-09-22T03:05:06.015Z,69.35
2014-09-22T03:06:10.705Z,70.3
2014-09-22T03:07:15.379Z,69.74
2014-09-22T03:08:20.068Z,68.99
2014-09-22T03:09:24.758Z,69.44
2014-09-22T03:10:29.744Z,69.38
2014-09-22T03:11:34.433Z,68.79
2014-09-22T03:12:39.107Z,68.67
2014-09-22T03:13:43.781Z,68.69
2014-09-22T03:14:48.768Z,68.55
2014-09-22T03:15:53.441Z,68.68
2014-09-22T03:16:58.116Z,69.35
2014-09-22T03:18:02.806Z,68.89
2014-09-22T03:19:06.792Z,69.28
2014-09-22T03:20:11.482Z,69.53
2014-09-22T03:21:16.172Z,68.84
2014-09-22T03:22:20.862Z,69.65
2014-09-22T03:23:25.536Z,70.03
2014-09-22T03:24:30.225Z,69.66
2014-09-22T03:25:34.899Z,69.13
2014-09-22T03:26:39.588Z,69.24
2014-09-22T03:27:44.262Z,69.3
2014-09-22T03:28:48.952Z,69.45
2014-09-22T03:29:53.626Z,69.04
2014-09-22T03:30:58.316Z,68.73
2014-09-22T03:32:03.286Z,68.27
2014-09-22T03:33:07.975Z,68.71
2014-09-22T03:34:12.649Z,68.58
2014-09-22T03:35:17.933Z,68.48
2014-09-22T03:36:22.606Z,68.33
2014-09-22T03:37:27.296Z,68.61
2014-09-22T03:38:31.985Z,68.59
2014-09-22T03:39:36.658Z,68.6
2014-09-22T03:40:41.349Z,68.86
2014-09-22T03:41:46.023Z,69.04
2014-09-22T03:42:51.009Z,68.04
2014-09-22T03:43:56.292Z,68.52
2014-09-22T03:45:00.967Z,69.07
2014-09-22T03:46:05.970Z,68.75
2014-09-22T03:47:10.940Z,67.8
2014-09-22T03:48:15.630Z,68.79
2014-09-22T03:49:20.304Z,68.7
2014-09-22T03:50:25.291Z,69.32
2014-09-22T03:51:29.965Z,69
2014-09-22T03:52:34.638Z,69.34
2014-09-22T03:53:39.625Z,69.14
2014-09-22T03:54:44.299Z,69.32
2014-09-22T03:55:48.973Z,68.66
2014-09-22T03:56:53.662Z,68.39
2014-09-22T03:57:58.336Z,68.32
2014-09-22T03:59:03.025Z,68.88
2014-09-22T04:00:08.293Z,67.91
2014-09-22T04:01:12.983Z,67.85
2014-09-22T04:02:17.657Z,68.2
2014-09-22T04:03:22.941Z,68.2
2014-09-22T04:04:27.615Z,67.92
2014-09-22T04:05:32.288Z,68.47
2014-09-22T04:06:36.978Z,68.26
2014-09-22T04:07:41.652Z,68.24
2014-09-22T04:08:46.340Z,68.13
2014-09-22T04:09:51.015Z,68.19
2014-09-22T04:10:55.986Z,67.95
2014-09-22T04:12:00.675Z,68.48
2014-09-22T04:13:05.350Z,68.34
2014-09-22T04:14:10.336Z,68.42
2014-09-22T04:15:15.010Z,68.21
2014-09-22T04:16:19.699Z,67.9
2014-09-22T04:17:24.373Z,67.94
2014-09-22T04:18:29.047Z,68.29
2014-09-22T04:19:33.736Z,68.28
2014-09-22T04:20:38.707Z,68.13
2014-09-22T04:21:43.396Z,68.18
2014-09-22T04:22:48.069Z,68.47
2014-09-22T04:23:52.071Z,68.51
2014-09-22T04:24:56.745Z,69.17
2014-09-22T04:26:01.732Z,69.26
2014-09-22T04:27:06.408Z,68.94
2014-09-22T04:28:11.081Z,68.63
2014-09-22T04:29:15.771Z,67.6
2014-09-22T04:30:20.741Z,68.41
2014-09-22T04:31:25.430Z,68.25
2014-09-22T04:32:30.104Z,68.04
2014-09-22T04:33:35.090Z,67.24
2014-09-22T04:34:40.061Z,67.32
2014-09-22T04:35:45.033Z,67.39
2014-09-22T04:36:49.722Z,67.15
2014-09-22T04:37:54.397Z,67.62
2014-09-22T04:38:59.087Z,67.6
2014-09-22T04:40:04.058Z,67.86
2014-09-22T04:41:08.747Z,68.47
2014-09-22T04:42:13.421Z,68.62
2014-09-22T04:43:18.109Z,68.17
2014-09-22T04:44:22.784Z,68.59
2014-09-22T04:45:27.771Z,67.7
2014-09-22T04:46:32.445Z,68.04
2014-09-22T04:47:37.431Z,68.38
2014-09-22T04:48:42.104Z,68.35
2014-09-22T04:49:46.778Z,68.9
2014-09-22T04:50:50.780Z,69.43
2014-09-22T04:51:55.454Z,69.56
2014-09-22T04:53:00.143Z,69.18
2014-09-22T04:54:05.131Z,69
2014-09-22T04:55:09.805Z,68.64
2014-09-22T04:56:14.495Z,68.85
2014-09-22T04:57:19.168Z,68.5
2014-09-22T04:58:23.842Z,69.4
2014-09-22T04:59:28.531Z,69.09
2014-09-22T05:00:33.502Z,68.29
2014-09-22T05:01:38.192Z,68.06
2014-09-22T05:02:43.163Z,68.03
2014-09-22T05:03:47.837Z,67.79
2014-09-22T05:04:52.526Z,67.48
2014-09-22T05:05:57.201Z,67.77
2014-09-22T05:07:01.891Z,67.93
2014-09-22T05:08:06.564Z,68.04
2014-09-22T05:09:11.253Z,67.92
2014-09-22T05:10:15.927Z,67.65
2014-09-22T05:11:20.618Z,68.08
2014-09-22T05:12:25.290Z,68.12
2014-09-22T05:13:29.278Z,66.9
2014-09-22T05:14:34.264Z,66.52
2014-09-22T05:15:38.938Z,67.26
2014-09-22T05:16:43.629Z,67.49
2014-09-22T05:17:48.302Z,67.2
2014-09-22T05:18:53.289Z,67.89
2014-09-22T05:19:57.962Z,68.34
2014-09-22T05:21:02.949Z,68.11
2014-09-22T05:22:07.623Z,68.27
2014-09-22T05:23:12.609Z,68.4
2014-09-22T05:24:17.299Z,67.6
2014-09-22T05:25:21.973Z,67.58
2014-09-22T05:26:26.958Z,67.62
2014-09-22T05:27:31.632Z,67.42
2014-09-22T05:28:36.321Z,67.25
2014-09-22T05:29:41.292Z,67.43
2014-09-22T05:30:45.983Z,67.07
2014-09-22T05:31:50.656Z,66.65
2014-09-22T05:32:55.345Z,67.05
2014-09-22T05:34:00.019Z,67.48
2014-09-22T05:35:04.708Z,68.1
2014-09-22T05:36:09.384Z,68.1
2014-09-22T05:37:14.073Z,68.24
2014-09-22T05:38:18.747Z,67.81
2014-09-22T05:39:23.437Z,68.12
2014-09-22T05:40:28.705Z,67.14
2014-09-22T05:41:33.394Z,67.11
2014-09-22T05:42:38.084Z,67.23
2014-09-22T05:43:42.758Z,67.4
2014-09-22T05:44:47.744Z,67.55
2014-09-22T05:45:52.418Z,67.39
2014-09-22T05:46:57.108Z,67.19
2014-09-22T05:48:01.797Z,66.89
2014-09-22T05:49:06.783Z,66.82
2014-09-22T05:50:11.458Z,66.9
2014-09-22T05:51:16.148Z,67.29
2014-09-22T05:52:21.117Z,67.64
2014-09-22T05:53:25.807Z,67
2014-09-22T05:54:29.793Z,67.26
2014-09-22T05:55:34.483Z,68.15
2014-09-22T05:56:39.157Z,68.38
2014-09-22T05:57:43.848Z,67.68
2014-09-22T05:58:48.521Z,68.26
2014-09-22T05:59:53.507Z,67.8
2014-09-22T06:00:58.478Z,67.92
2014-09-22T06:02:03.168Z,68.38
2014-09-22T06:03:07.843Z,67.97
2014-09-22T06:04:12.515Z,67.85
2014-09-22T06:05:17.206Z,67.94
2014-09-22T06:06:21.879Z,67.66
2014-09-22T06:07:26.569Z,67.48
2014-09-22T06:08:31.243Z,66.96
2014-09-22T06:09:35.932Z,66.95
2014-09-22T06:10:40.607Z,67.1
2014-09-22T06:11:45.296Z,67.31
2014-09-22T06:12:49.970Z,66.65
2014-09-22T06:13:54.644Z,67.09
2014-09-22T06:14:59.333Z,66.48
2014-09-22T06:16:04.007Z,66.92
2014-09-22T06:17:08.995Z,67.4
2014-09-22T06:18:13.668Z,67.5
2014-09-22T06:19:18.357Z,67.46
2014-09-22T06:20:23.031Z,67.87
2014-09-22T06:21:27.705Z,68.09
2014-09-22T06:22:32.395Z,67.85
2014-09-22T06:23:37.069Z,67.49
2014-09-22T06:24:41.759Z,66.87
2014-09-22T06:25:46.432Z,66.96
2014-09-22T06:26:51.122Z,67.96
2014-09-22T06:27:56.093Z,67.84
2014-09-22T06:29:00.782Z,67.01
2014-09-22T06:30:05.754Z,66.59
2014-09-22T06:31:10.442Z,66.64
2014-09-22T06:32:15.116Z,66.73
2014-09-22T06:33:19.790Z,68.12
2014-09-22T06:34:24.464Z,67.34
2014-09-22T06:35:29.450Z,66.84
2014-09-22T06:36:34.437Z,65.17
2014-09-22T06:37:39.111Z,66.38
2014-09-22T06:38:44.097Z,65.37
2014-09-22T06:39:49.068Z,65.57
2014-09-22T06:40:53.757Z,65.82
2014-09-22T06:41:58.729Z,65.59
2014-09-22T06:43:03.418Z,65.8
2014-09-22T06:44:08.092Z,66.22
2014-09-22T06:45:12.890Z,66.49
2014-09-22T06:46:17.581Z,66.43
2014-09-22T06:47:22.269Z,68.16
2014-09-22T06:48:26.943Z,65.32
2014-09-22T06:49:32.212Z,65.89
2014-09-22T06:50:37.197Z,65.54
2014-09-22T06:51:41.888Z,65.78
2014-09-22T06:52:46.562Z,65.47
2014-09-22T06:53:51.235Z,65.75
2014-09-22T06:54:55.925Z,65.06
2014-09-22T06:55:59.910Z,62.55
2014-09-22T06:57:04.897Z,60.38
2014-09-22T06:58:09.571Z,60.73
2014-09-22T06:59:14.263Z,62.24
2014-09-22T07:00:19.248Z,63.18
2014-09-22T07:01:23.922Z,63.65
2014-09-22T07:02:27.924Z,64.73
2014-09-22T07:03:32.911Z,64.81
2014-09-22T07:04:37.881Z,64.07
2014-09-22T07:05:42.555Z,64.82
2014-09-22T07:06:47.245Z,64.81
2014-09-22T07:07:51.920Z,64.66
2014-09-22T07:08:56.608Z,63.89
2014-09-22T07:10:01.892Z,64.42
2014-09-22T07:11:06.862Z,64.26
2014-09-22T07:12:11.552Z,63.32
2014-09-22T07:13:16.226Z,62.93
2014-09-22T07:14:21.509Z,62.83
2014-09-22T07:15:26.199Z,63.52
2014-09-22T07:16:30.872Z,63.33
2014-09-22T07:17:35.562Z,63.04
2014-09-22T07:18:40.251Z,63.33
2014-09-22T07:19:44.926Z,63.08
2014-09-22T07:20:49.616Z,64.33
2014-09-22T07:21:54.289Z,61.85
2014-09-22T07:22:58.979Z,62.68
2014-09-22T07:24:03.652Z,62.87
2014-09-22T07:25:08.638Z,61.59
2014-09-22T07:26:13.312Z,61.49
2014-09-22T07:27:18.300Z,62.24
2014-09-22T07:28:22.974Z,61.84
2014-09-22T07:29:27.664Z,61.64
2014-09-22T07:30:32.635Z,61.68
2014-09-22T07:31:37.324Z,61.46
2014-09-22T07:32:41.997Z,62.12
2014-09-22T07:33:46.686Z,60.74
2014-09-22T07:34:51.360Z,60.37
2014-09-22T07:35:56.347Z,61.11
2014-09-22T07:37:01.022Z,62.44
2014-09-22T07:38:05.712Z,62.69
2014-09-22T07:39:10.697Z,62.88
2014-09-22T07:40:15.669Z,62.35
2014-09-22T07:41:20.359Z,63.01
2014-09-22T07:42:25.032Z,62.81
2014-09-22T07:43:29.721Z,62.05
2014-09-22T07:44:34.989Z,62.56
2014-09-22T07:45:39.679Z,61.78
2014-09-22T07:46:44.353Z,62.11
2014-09-22T07:47:49.042Z,62.03
2014-09-22T07:48:54.045Z,62.13
2014-09-22T07:49:58.718Z,61.66
2014-09-22T07:51:03.408Z,61.47
2014-09-22T07:52:08.081Z,63.06
2014-09-22T07:53:12.770Z,62.31
2014-09-22T07:54:17.446Z,61.67
2014-09-22T07:55:22.120Z,61.46
2014-09-22T07:56:26.810Z,61.44
2014-09-22T07:57:31.483Z,61.38
2014-09-22T07:58:36.470Z,61.99
2014-09-22T07:59:41.144Z,62.71
2014-09-22T08:00:45.834Z,61.56
2014-09-22T08:01:50.804Z,61.6
2014-09-22T08:02:55.493Z,62.7
2014-09-22T08:04:00.168Z,63.1
2014-09-22T08:05:05.154Z,63.25
2014-09-22T08:06:09.844Z,62.44
2014-09-22T08:07:14.518Z,62.3
2014-09-22T08:08:19.208Z,62.63
2014-09-22T08:09:24.178Z,63.27
2014-09-22T08:10:28.868Z,62.53
2014-09-22T08:11:33.542Z,62.88
2014-09-22T08:12:38.528Z,62.07
2014-09-22T08:13:43.202Z,62.18
2014-09-22T08:14:48.188Z,62.47
2014-09-22T08:15:52.862Z,62.54
2014-09-22T08:16:57.552Z,61.94
2014-09-22T08:18:02.227Z,61.92
2014-09-22T08:19:06.916Z,61.8
2014-09-22T08:20:11.886Z,61.96
2014-09-22T08:21:16.575Z,62.93
2014-09-22T08:22:21.250Z,62.58
2014-09-22T08:23:26.236Z,61.87
2014-09-22T08:24:30.910Z,63.16
2014-09-22T08:25:35.880Z,62.58
2014-09-22T08:26:40.869Z,64.04
2014-09-22T08:27:45.557Z,64.99
2014-09-22T08:28:50.231Z,65.13
2014-09-22T08:29:55.202Z,64.19
2014-09-22T08:30:59.891Z,63.15
2014-09-22T08:32:05.174Z,63.19
2014-09-22T08:33:09.849Z,63.31
2014-09-22T08:34:14.836Z,64.34
2014-09-22T08:35:19.510Z,62.71
2014-09-22T08:36:24.183Z,63.37
2014-09-22T08:37:28.873Z,62.92
2014-09-22T08:38:33.547Z,62.52
2014-09-22T08:39:38.236Z,62.83
2014-09-22T08:40:42.909Z,63.33
2014-09-22T08:41:47.896Z,62.92
2014-09-22T08:42:52.585Z,62.13
2014-09-22T08:43:57.259Z,62.66
2014-09-22T08:45:01.948Z,62.27
2014-09-22T08:46:06.640Z,61.98
2014-09-22T08:47:11.610Z,62.07
2014-09-22T08:48:16.597Z,62.04
2014-09-22T08:49:21.270Z,63.23
2014-09-22T08:50:26.257Z,62.75
2014-09-22T08:51:30.930Z,62.34
2014-09-22T08:52:35.620Z,62.23
2014-09-22T08:53:40.590Z,62.23
2014-09-22T08:54:45.280Z,62.11
2014-09-22T08:55:49.955Z,62.21
2014-09-22T08:56:54.940Z,62.47
2014-09-22T08:57:59.929Z,62.44
2014-09-22T08:59:04.602Z,62.92
2014-09-22T09:00:09.291Z,63.06
2014-09-22T09:01:13.980Z,62.99
2014-09-22T09:02:18.655Z,63.36
2014-09-22T09:03:23.642Z,62.91
2014-09-22T09:04:28.315Z,62.97
2014-09-22T09:05:33.004Z,62.69
2014-09-22T09:06:37.678Z,63.55
2014-09-22T09:07:42.367Z,63.35
2014-09-22T09:08:47.042Z,62.37
2014-09-22T09:09:51.732Z,62.79
2014-09-22T09:10:56.704Z,62.22
2014-09-22T09:12:01.392Z,63.24
2014-09-22T09:13:06.066Z,62.45
2014-09-22T09:14:10.755Z,62.84
2014-09-22T09:15:15.430Z,62.55
2014-09-22T09:16:20.119Z,62.86
2014-09-22T09:17:24.809Z,62.39
2014-09-22T09:18:29.779Z,62.69
2014-09-22T09:19:34.469Z,63.4
2014-09-22T09:20:39.143Z,62.98
2014-09-22T09:21:44.130Z,62.58
2014-09-22T09:22:48.803Z,62.58
2014-09-22T09:23:53.493Z,63.2
2014-09-22T09:24:58.167Z,63.05
2014-09-22T09:26:02.466Z,63.49
2014-09-22T09:27:07.140Z,64.2
2014-09-22T09:28:12.126Z,62.83
2014-09-22T09:29:16.800Z,62.53
2014-09-22T09:30:21.491Z,61.7
2014-09-22T09:31:26.477Z,61.59
2014-09-22T09:32:31.150Z,62.49
2014-09-22T09:33:35.840Z,61.5
2014-09-22T09:34:40.513Z,61.74
2014-09-22T09:35:45.500Z,61.71
2014-09-22T09:36:50.189Z,60.69
2014-09-22T09:37:54.879Z,60.26
2014-09-22T09:38:59.865Z,59.99
2014-09-22T09:40:04.539Z,60.15
2014-09-22T09:41:09.822Z,60.08
2014-09-22T09:42:14.512Z,60.18
2014-09-22T09:43:19.185Z,60.28
2014-09-22T09:44:23.876Z,60.76
2014-09-22T09:45:28.565Z,61.06
2014-09-22T09:46:33.239Z,61.67
2014-09-22T09:47:37.929Z,61.4
2014-09-22T09:48:42.603Z,61.1
2014-09-22T09:49:47.292Z,60.55
2014-09-22T09:50:51.982Z,59.43
2014-09-22T09:51:56.967Z,59.89
2014-09-22T09:53:00.954Z,60.4
2014-09-22T09:54:05.644Z,60.83
2014-09-22T09:55:10.615Z,60.53
2014-09-22T09:56:15.304Z,60.03
2014-09-22T09:57:19.978Z,59.54
2014-09-22T09:58:24.950Z,60.2
2014-09-22T09:59:29.639Z,59.73
2014-09-22T10:00:34.313Z,60.23
2014-09-22T10:01:39.003Z,58.99
2014-09-22T10:02:43.692Z,58.19
2014-09-22T10:03:48.366Z,58.19
2014-09-22T10:04:53.056Z,58.92
2014-09-22T10:05:57.729Z,61.31
2014-09-22T10:07:02.418Z,59.68
2014-09-22T10:08:07.092Z,59.86
2014-09-22T10:09:11.781Z,60.25
2014-09-22T10:10:16.768Z,59.83
2014-09-22T10:11:21.457Z,59.55
2014-09-22T10:12:26.133Z,58.4
2014-09-22T10:13:30.807Z,58.09
2014-09-22T10:14:35.496Z,58.22
2014-09-22T10:15:40.170Z,57.77
2014-09-22T10:16:44.860Z,58.1
2014-09-22T10:17:49.845Z,58.6
2014-09-22T10:18:54.520Z,58.02
2014-09-22T10:19:59.506Z,58.23
2014-09-22T10:21:04.509Z,59.1
2014-09-22T10:22:09.199Z,57.76
2014-09-22T10:23:13.873Z,58.35
2014-09-22T10:24:18.561Z,58.71
2014-09-22T10:25:23.533Z,57.38
2014-09-22T10:26:28.519Z,57.05
2014-09-22T10:27:33.193Z,56.67
2014-09-22T10:28:37.883Z,56.52
2014-09-22T10:29:42.854Z,56.54
2014-09-22T10:30:47.544Z,55.74
2014-09-22T10:31:52.217Z,55.41
2014-09-22T10:32:56.907Z,54.75
2014-09-22T10:34:01.581Z,54.61
2014-09-22T10:35:06.568Z,55.75
2014-09-22T10:36:11.538Z,56.5
2014-09-22T10:37:16.212Z,55.27
2014-09-22T10:38:20.902Z,54.8
2014-09-22T10:39:25.888Z,53.87
2014-09-22T10:40:30.562Z,54.09
2014-09-22T10:41:35.236Z,54.44
2014-09-22T10:42:39.925Z,53.16
2014-09-22T10:43:44.615Z,52.59
2014-09-22T10:44:49.586Z,52.89
2014-09-22T10:45:54.275Z,52.77
2014-09-22T10:46:59.262Z,53.07
2014-09-22T10:48:03.935Z,52.75
2014-09-22T10:49:08.624Z,54.18
2014-09-22T10:50:13.298Z,53.78
2014-09-22T10:51:17.987Z,52.93
2014-09-22T10:52:22.677Z,52.88
2014-09-22T10:53:27.353Z,53.86
2014-09-22T10:54:32.027Z,53.98
2014-09-22T10:55:37.013Z,54.33
2014-09-22T10:56:41.984Z,52.74
2014-09-22T10:57:46.969Z,51.83
2014-09-22T10:58:51.660Z,52.22
2014-09-22T10:59:56.333Z,51.47
2014-09-22T11:01:01.023Z,52.33
2014-09-22T11:02:05.696Z,51.79
2014-09-22T11:03:10.385Z,51.87
2014-09-22T11:04:15.061Z,52.66
2014-09-22T11:05:19.751Z,50.97
2014-09-22T11:06:24.425Z,51.31
2014-09-22T11:07:29.114Z,51.88
2014-09-22T11:08:33.788Z,54.48
2014-09-22T11:09:38.476Z,51.99
2014-09-22T11:10:43.150Z,50.37
2014-09-22T11:11:47.840Z,50.12
2014-09-22T11:12:52.514Z,49.56
2014-09-22T11:13:57.539Z,52.92
2014-09-22T11:15:02.258Z,51.82
2014-09-22T11:16:07.289Z,50.62
2014-09-22T11:17:12.008Z,51.28
2014-09-22T11:18:16.743Z,51.21
2014-09-22T11:19:21.733Z,51.26
2014-09-22T11:20:26.439Z,51.49
2014-09-22T11:21:31.147Z,52.3
2014-09-22T11:22:35.852Z,51.91
2014-09-22T11:23:40.533Z,52.2
2014-09-22T11:24:45.214Z,52.11
2014-09-22T11:25:49.910Z,51.75
2014-09-22T11:26:54.590Z,52.24
2014-09-22T11:27:59.285Z,52.24
2014-09-22T11:29:03.961Z,53.25
2014-09-22T11:30:08.652Z,52.87
2014-09-22T11:31:13.641Z,53.96
2014-09-22T11:32:18.318Z,55.59
2014-09-22T11:33:23.305Z,52.86
2014-09-22T11:34:27.979Z,52.62
2014-09-22T11:35:32.670Z,52.79
2014-09-22T11:36:37.344Z,51.9
2014-09-22T11:37:42.035Z,52.54
2014-09-22T11:38:47.005Z,54.03
2014-09-22T11:39:51.695Z,53.99
2014-09-22T11:40:56.370Z,51.32
2014-09-22T11:42:01.060Z,52.31
2014-09-22T11:43:05.750Z,53.16
2014-09-22T11:44:10.439Z,53.32
2014-09-22T11:45:15.426Z,54.09
2014-09-22T11:46:20.396Z,53.31
2014-09-22T11:47:25.086Z,51.7
2014-09-22T11:48:29.759Z,53.38
2014-09-22T11:49:34.747Z,53.22
2014-09-22T11:50:39.421Z,53.11
2014-09-22T11:51:44.111Z,52.47
2014-09-22T11:52:48.801Z,51.95
2014-09-22T11:53:52.787Z,52.21
2014-09-22T11:54:57.476Z,52.01
2014-09-22T11:56:02.165Z,52.55
2014-09-22T11:57:06.840Z,52.93
2014-09-22T11:58:11.529Z,53.97
2014-09-22T11:59:16.516Z,51.03
2014-09-22T12:00:21.206Z,50.96
2014-09-22T12:01:25.895Z,51.1
2014-09-22T12:02:30.569Z,52.03
2014-09-22T12:03:35.259Z,52.57
2014-09-22T12:04:39.932Z,52.73
2014-09-22T12:05:44.622Z,52.4
2014-09-22T12:06:49.296Z,51.92
2014-09-22T12:07:53.985Z,51.8
2014-09-22T12:08:58.956Z,51.31
2014-09-22T12:10:03.646Z,50.35
2014-09-22T12:11:08.319Z,50.42
2014-09-22T12:12:13.025Z,50.86
2014-09-22T12:13:18.011Z,50.72
2014-09-22T12:14:22.684Z,50.56
2014-09-22T12:15:27.373Z,49.56
2014-09-22T12:16:32.643Z,51.49
2014-09-22T12:17:37.332Z,50.37
2014-09-22T12:18:42.006Z,52.53
2014-09-22T12:19:46.695Z,52.39
2014-09-22T12:20:51.666Z,51.33
2014-09-22T12:21:56.355Z,52.45
2014-09-22T12:23:01.326Z,53.98
2014-09-22T12:24:06.313Z,52.53
2014-09-22T12:25:11.301Z,52.45
2014-09-22T12:26:15.974Z,51.83
2014-09-22T12:27:20.664Z,52.8
2014-09-22T12:28:25.634Z,53.79
2014-09-22T12:29:30.324Z,52.66
2014-09-22T12:30:35.295Z,53.02
2014-09-22T12:31:39.983Z,53.04
2014-09-22T12:32:44.955Z,53.49
2014-09-22T12:33:49.942Z,53.79
2014-09-22T12:34:54.615Z,53.13
2014-09-22T12:35:59.899Z,52.73
2014-09-22T12:37:04.573Z,52.45
2014-09-22T12:38:08.575Z,52.87
2014-09-22T12:39:13.248Z,53.22
2014-09-22T12:40:17.938Z,52.54
2014-09-22T12:41:22.626Z,53.31
2014-09-22T12:42:27.597Z,51.92
2014-09-22T12:43:32.287Z,52.09
2014-09-22T12:44:36.963Z,51.48
2014-09-22T12:45:41.651Z,51.32
2014-09-22T12:46:46.622Z,51.03
2014-09-22T12:47:51.608Z,51.38
2014-09-22T12:48:56.283Z,51.08
2014-09-22T12:50:00.972Z,51.21
2014-09-22T12:51:05.645Z,50.88
2014-09-22T12:52:10.320Z,50.57
2014-09-22T12:53:14.618Z,50.73
2014-09-22T12:54:19.309Z,51.21
2014-09-22T12:55:23.984Z,50.81
2014-09-22T12:56:28.673Z,51.03
2014-09-22T12:57:33.643Z,51.39
2014-09-22T12:58:38.332Z,51.27
2014-09-22T12:59:43.007Z,50.13
2014-09-22T13:00:47.696Z,50.99
2014-09-22T13:01:52.666Z,50.99
2014-09-22T13:02:57.653Z,51.07
2014-09-22T13:04:02.328Z,51.22
2014-09-22T13:05:07.018Z,50.36
2014-09-22T13:06:11.691Z,50.18
2014-09-22T13:07:16.381Z,50.31
2014-09-22T13:08:21.055Z,50.04
2014-09-22T13:09:25.745Z,49.66
2014-09-22T13:10:30.715Z,50.14
2014-09-22T13:11:35.405Z,49.95
2014-09-22T13:12:40.095Z,49.1
2014-09-22T13:13:44.769Z,49.12
2014-09-22T13:14:49.457Z,49.2
2014-09-22T13:15:54.148Z,48.58
2014-09-22T13:16:58.837Z,47.84
2014-09-22T13:18:03.511Z,47.71
2014-09-22T13:19:08.200Z,47.96
2014-09-22T13:20:12.874Z,47.76
2014-09-22T13:21:17.564Z,49.06
2014-09-22T13:22:22.238Z,48.95
2014-09-22T13:23:26.928Z,49.22
2014-09-22T13:24:31.601Z,49.41
2014-09-22T13:25:36.291Z,49.25
2014-09-22T13:26:40.965Z,49.64
2014-09-22T13:27:45.655Z,49.53
2014-09-22T13:28:50.328Z,51.16
2014-09-22T13:29:55.017Z,49.45
2014-09-22T13:30:59.692Z,49.45
2014-09-22T13:32:04.679Z,49.4
2014-09-22T13:33:09.352Z,50.37
2014-09-22T13:34:14.026Z,50.02
2014-09-22T13:35:18.716Z,50.7
2014-09-22T13:36:23.390Z,51.12
2014-09-22T13:37:28.079Z,51.43
2014-09-22T13:38:32.769Z,51.75
2014-09-22T13:39:37.474Z,51.47
2014-09-22T13:40:42.445Z,50.91
2014-09-22T13:41:47.134Z,51.48
2014-09-22T13:42:51.824Z,51.66
2014-09-22T13:43:56.810Z,51.86
2014-09-22T13:45:01.484Z,51.86
2014-09-22T13:46:06.173Z,51.32
2014-09-22T13:47:10.847Z,51.19
2014-09-22T13:48:15.537Z,50.85
2014-09-22T13:49:20.211Z,50.93
2014-09-22T13:50:25.197Z,51.34
2014-09-22T13:51:30.168Z,51.91
2014-09-22T13:52:34.857Z,51.35
2014-09-22T13:53:39.533Z,51.58
2014-09-22T13:54:44.222Z,51.29
2014-09-22T13:55:49.192Z,51.24
2014-09-22T13:56:53.882Z,51.33